AirNav   Pilot Hours Calculator
 
 457 users online  

38WA Blakely Island Airport
Blakely Island, Washington, USA

GOING TO BLAKELY ISLAND?


FAA INFORMATION EFFECTIVE 07 NOVEMBER 2019

Location

FAA Identifier: 38WA
Lat/Long: 48-34-44.3700N 122-49-34.6470W
48-34.739500N 122-49.577450W
48.5789917,-122.8262908
(estimated)
Elevation: 66 ft. / 20.1 m (surveyed)
Variation: 21E (1985)
Time zone: UTC -8 (UTC -7 during Daylight Saving Time)
Zip code: 98222

Airport Operations

Airport use: Private use. Permission required prior to landing
Activation date: 01/1948
Control tower: no
ARTCC: SEATTLE CENTER
FSS: SEATTLE FLIGHT SERVICE STATION
Attendance: CONTINUOUS
Wind indicator: lighted
Segmented circle: no
Lights: ACTVT MIRL RY 01/19 - 122.9.

Airport Communications

WX AWOS-3 at ORS (8 nm NW): 135.425 (360-376-6045)
WX ASOS at FHR (9 nm SW): 135.675 (360-378-8491)
WX ASOS at BLI (17 nm NE): PHONE 360-671-8688
WX AWOS-3 at BVS (17 nm E): 121.125 (360-757-7767)
  • MULTICOM FREQ 122.9.

Nearby radio navigation aids

VOR radial/distance  VOR name  Freq  Var
CVVr330/20.5PENN COVE VOR/DME117.2019E
HUHr184/24.1WHATCOM VORTAC113.0020E
YYJr092/27.6VICTORIA VOR/DME113.7017E
YVRr140/32.5VANCOUVER VOR/DME115.9017E

 
NDB name  Hdg/Dist  Freq  Var  ID
FRIDAY HARBOR046/8.828417EFHR ..-. .... .-.
SKAGIT/BAY VIEW276/17.524016EBVS -... ...- ...
EDIZ HOOK024/35.033817ENOW -. --- .--

Airport Services

Runway Information

Runway 1/19

Dimensions: 2200 x 40 ft. / 671 x 12 m
ADDNL 200 X 40' OVRNS & TURBC BOTH ENDS RWY 01/19.
Surface: asphalt
Runway edge lights: medium intensity
RUNWAY 1  RUNWAY 19
Traffic pattern: leftright
Displaced threshold: 252 ft.122 ft.
Obstructions: trees, 2000 ft. from runwaytrees, 2000 ft. from runway

Airport Ownership and Management from official FAA records

Ownership: Privately-owned
Owner: BLAKELY ISLAND MAINT COM
355 BLAKELY DR
BLAKELY ISLAND, WA 98222
Manager: DAN ROACH
466 MARINE DR
BLAKLEY ISLAND, WA 98222
Phone 360-375-6294
SECONDARY PHONE 206-276-3054 DECRRR@GMAIL.COM SECONDARY CONTACT JOEL STEWARD 509-435-7591 360-375-6662

Airport Operational Statistics

Aircraft based on the field: 11
Single engine airplanes: 5
Multi engine airplanes: 6
    

Additional Remarks

TREES BOTH SIDES OF RWY PENT TRSNL SFC.
WATCH FOR DEER ON RWY.
MIDDLE RY 01/19 HIGHER THAN EITHER END. CHECK ARPT TFC FM RUN-UP PAD CENTER OF FLD BEFORE TKOF.
FOR CD CTC WHIDBEY APCH AT 360-257-3310.

Instrument Procedures

There are no published instrument procedures at 38WA.

Some nearby airports with instrument procedures:

KORS - Orcas Island Airport (8 nm NW)
KFHR - Friday Harbor Airport (9 nm SW)
KNUW - Whidbey Island Naval Air Station (Ault Field) (15 nm SE)
KBLI - Bellingham International Airport (17 nm NE)
KBVS - Skagit Regional Airport (17 nm E)
 
Loc | Ops | Rwys | IFR | FBO | Links
Com | Nav | Svcs | Stats | Notes
Area around 38WA (Blakely Island Airport)
 
Road maps at: MapQuest Bing Google
 
Aerial photo
WARNING: Photo may not be current or correct
Aerial photo of 38WA (Blakely Island Airport)
Photo by Domenick Venezia, 2003-09

Do you have a better or more recent aerial photo of Blakely Island Airport that you would like to share? If so, please send us your photo.

 
Sectional chart

 
Airport distance calculator
Flying to Blakely Island Airport? Find the distance to fly.

From to 38WA

Sunrise and sunset
Times for 17-Nov-2019
 Local
(UTC-8)
 Zulu
(UTC)
Morning civil twilight06:4914:49
Sunrise07:2415:24
Sunset16:2900:29
Evening civil twilight17:0301:03

Current date and time
Zulu (UTC)  17-Nov-2019 10:57:58
Local (UTC-8)  17-Nov-2019 02:57:58
 
METAR
KORS 
8nm N 
171055Z AUTO 17011G18KT 9SM -RA SCT034 BKN041 OVC050 12/10 A3001 RMK AO2 P0001
KFHR 
9nm SW 
171053Z AUTO 15007KT 10SM FEW035 BKN060 OVC095 10/09 A3003 RMK AO2 RAE52 SLP170 P0000 T01000089 $
CWEZ 
14nm NW 
171000Z AUTO 18020KT 11/09 RMK AO1 6PAST HR 8016 PK WND 17028/0910 SLP167 P0002 T01080092 50016
KNUW 
15nm SE 
170956Z 12017G25KT 7SM -RA FEW010 SCT027 BKN050 13/08 A3008 RMK AO2 RAB07 SLP186 P0004 T01280083 $
CWZO 
16nm W 
171000Z AUTO 16016KT RMK AO1 PK WND 15023/0937
KBVS 
18nm E 
171035Z AUTO 12011KT 6SM BR OVC055 11/10 A3008 RMK A01
KBLI 
18nm NE 
171053Z AUTO 16016G24KT 10SM -RA OVC044 13/08 A3001 RMK AO2 PK WND 17026/0955 PRESFR SLP169 P0003 T01330078
CWYJ 
20nm SW 
171000Z AUTO 13001KT 10/10 RMK AO1 7PAST HR 8011 SLP175 P0011 T00970095 50086
TAF
KNUW 
15nm SE 
1708/1807 14022G30KT 9000 BR VCSH FEW012 SCT030 BKN040 OVC060 WSCONDS 651009 651907 580009 580909 551809 QNH3000INS TEMPO 1708/1713 13017G26KT 6000 -SHRA BR SCT012 BKN025 OVC050 FM171300 14022G29KT 6000 SHRA BR BKN012 OVC030 WSCONDS 650909 651805 580009 580909 551809 QNH3001INS TEMPO 1713/1719 13013KT 9000 BR SCT012 BKN035 OVC050 FM171900 16013KT 8000 BR VCSH SCT007 BKN012 OVC030 650803 550009 550909 QNH3005INS TEMPO 1719/1801 22008KT 4800 -SHRA BR BKN007 OVC025 FM180200 VRB06KT 9999 FEW012 SCT1
KBLI 
18nm NE 
170545Z 1706/1806 16015G22KT P6SM -RA OVC045 FM171200 16015G25KT 4SM -RA BR OVC015 FM172000 16010KT P6SM VCSH BKN020 BKN050
NOTAMs
Click for the latest NOTAMs
NOTAMs are issued by the DoD/FAA and will open in a separate window not controlled by AirNav.

 

 
 

Would you like to see your business listed on this page?

 If your business provides an interesting product or service to pilots, flight crews, aircraft, or users of the Blakely Island Airport, you should consider listing it here.  To start the listing process, click on the button below
 
Add a business
 

Other Pages about Blakely Island Airport

www.rockisland.com/...
 
Update a link
 
Copyright © AirNav, LLC. All rights reserved. Privacy Policy  Contact